createdAt,value
2023-12-08T00:01:14.565Z,96403.94
2023-12-08T00:03:44.213Z,96393.13
2023-12-08T00:06:12.977Z,96389.03
2023-12-08T00:08:41.805Z,96390.63
2023-12-08T00:11:12.269Z,96384.06
2023-12-08T00:13:40.325Z,96394.03
2023-12-08T00:16:09.933Z,96401.59
2023-12-08T00:18:39.146Z,96406.53
2023-12-08T00:21:09.137Z,96404.06
2023-12-08T00:23:37.355Z,96404.84
2023-12-08T00:26:05.643Z,96411.38
2023-12-08T00:28:33.697Z,96404.06
2023-12-08T00:31:01.735Z,96409.78
2023-12-08T00:33:30.193Z,96407.25
2023-12-08T00:35:59.100Z,96394.88
2023-12-08T00:38:28.936Z,96395.66
2023-12-08T00:40:57.916Z,96391.56
2023-12-08T00:43:25.975Z,96382.34
2023-12-08T00:45:53.957Z,96376.50
2023-12-08T00:48:22.188Z,96380.66
2023-12-08T00:50:50.502Z,96378.16
2023-12-08T00:53:19.610Z,96376.50
2023-12-08T00:55:52.582Z,96366.63
2023-12-08T00:58:20.588Z,96350.88
2023-12-08T01:00:48.799Z,96356.63
2023-12-08T01:03:16.952Z,96353.28
2023-12-08T01:05:44.955Z,96341.03
2023-12-08T01:08:13.050Z,96342.72
2023-12-08T01:10:41.200Z,96351.00
2023-12-08T01:13:10.546Z,96339.38
2023-12-08T01:15:38.574Z,96341.84
2023-12-08T01:18:07.171Z,96325.16
2023-12-08T01:20:42.739Z,96321.84
2023-12-08T01:23:10.769Z,96316.13
2023-12-08T01:25:38.859Z,96318.59
2023-12-08T01:28:06.930Z,96316.94
2023-12-08T01:30:36.348Z,96315.34
2023-12-08T01:33:04.665Z,96303.84
2023-12-08T01:35:32.793Z,96304.63
2023-12-08T01:38:00.740Z,96302.91
2023-12-08T01:40:28.703Z,96291.31
2023-12-08T01:42:56.700Z,96295.47
2023-12-08T01:45:24.656Z,96280.50
2023-12-08T01:47:54.124Z,96288.75
2023-12-08T01:50:22.172Z,96278.88
2023-12-08T01:52:50.302Z,96289.69
2023-12-08T01:55:18.445Z,96286.38
2023-12-08T01:57:46.406Z,96283.09
2023-12-08T02:00:15.658Z,96291.28
2023-12-08T02:02:44.676Z,96294.47
2023-12-08T02:05:14.352Z,96291.34
2023-12-08T02:07:42.322Z,96279.72
2023-12-08T02:10:10.424Z,96273.78
2023-12-08T02:12:38.413Z,96263.81
2023-12-08T02:15:07.339Z,96269.66
2023-12-08T02:17:39.503Z,96263.06
2023-12-08T02:20:10.633Z,96267.22
2023-12-08T02:22:40.057Z,96268.13
2023-12-08T02:25:10.336Z,96267.34
2023-12-08T02:27:38.319Z,96262.41
2023-12-08T02:30:07.792Z,96273.94
2023-12-08T02:32:39.496Z,96269.75
2023-12-08T02:35:10.111Z,96265.59
2023-12-08T02:37:39.913Z,96267.19
2023-12-08T02:40:10.588Z,96258.00
2023-12-08T02:42:38.766Z,96264.63
2023-12-08T02:45:08.045Z,96256.38
2023-12-08T02:47:36.083Z,96249.66
2023-12-08T02:50:04.623Z,96249.78
2023-12-08T02:52:32.663Z,96248.97
2023-12-08T02:55:00.604Z,96250.63
2023-12-08T02:57:30.210Z,96247.34
2023-12-08T02:59:58.242Z,96246.56
2023-12-08T03:02:26.338Z,96244.09
2023-12-08T03:04:57.034Z,96254.03
2023-12-08T03:07:25.539Z,96238.28
2023-12-08T03:09:53.760Z,96234.16
2023-12-08T03:12:21.797Z,96233.28
2023-12-08T03:14:51.237Z,96230.00
2023-12-08T03:17:19.306Z,96216.72
2023-12-08T03:19:47.432Z,96215.09
2023-12-08T03:22:15.449Z,96214.25
2023-12-08T03:24:43.461Z,96211.81
2023-12-08T03:27:13.820Z,96200.25
2023-12-08T03:29:42.440Z,96201.91
2023-12-08T03:32:11.780Z,96201.25
2023-12-08T03:34:40.049Z,96203.69
2023-12-08T03:37:07.985Z,96197.03
2023-12-08T03:39:35.996Z,96201.09
2023-12-08T03:42:04.172Z,96199.53
2023-12-08T03:44:32.253Z,96201.06
2023-12-08T03:47:00.217Z,96190.31
2023-12-08T03:49:29.695Z,96186.06
2023-12-08T03:51:57.672Z,96181.03
2023-12-08T03:54:25.685Z,96171.91
2023-12-08T03:56:53.789Z,96160.56
2023-12-08T03:59:21.898Z,96153.03
2023-12-08T04:01:53.525Z,96141.50
2023-12-08T04:04:26.092Z,96129.16
2023-12-08T04:06:56.890Z,96118.47
2023-12-08T04:09:26.768Z,96106.91
2023-12-08T04:11:56.348Z,96080.50
2023-12-08T04:14:24.358Z,96085.47
2023-12-08T04:16:52.898Z,96094.56
2023-12-08T04:19:22.075Z,96101.19
2023-12-08T04:21:50.347Z,96104.50
2023-12-08T04:24:19.882Z,96089.63
2023-12-08T04:26:48.067Z,96093.78
2023-12-08T04:29:16.087Z,96089.66
2023-12-08T04:31:46.580Z,96091.31
2023-12-08T04:34:14.772Z,96080.53
2023-12-08T04:36:42.787Z,96088.00
2023-12-08T04:39:10.989Z,96089.59
2023-12-08T04:41:42.825Z,96080.44
2023-12-08T04:44:10.864Z,96072.09
2023-12-08T04:46:38.798Z,96075.38
2023-12-08T04:49:07.008Z,96071.22
2023-12-08T04:51:36.698Z,96070.38
2023-12-08T04:54:04.954Z,96072.94
2023-12-08T04:56:33.322Z,96069.66
2023-12-08T04:59:02.703Z,96081.28
2023-12-08T05:01:30.708Z,96077.19
2023-12-08T05:03:59.335Z,96066.41
2023-12-08T05:06:27.915Z,96066.44
2023-12-08T05:08:56.078Z,96068.78
2023-12-08T05:11:27.038Z,96069.66
2023-12-08T05:13:54.997Z,96065.47
2023-12-08T05:16:24.357Z,96072.03
2023-12-08T05:18:52.404Z,96072.19
2023-12-08T05:21:20.446Z,96067.22
2023-12-08T05:23:48.491Z,96067.94
2023-12-08T05:26:16.451Z,96071.31
2023-12-08T05:28:44.463Z,96069.63
2023-12-08T05:31:13.639Z,96065.47
2023-12-08T05:33:43.722Z,96069.78
2023-12-08T05:36:12.683Z,96062.25
2023-12-08T05:38:40.799Z,96071.41
2023-12-08T05:41:08.842Z,96058.16
2023-12-08T05:43:36.799Z,96053.13
2023-12-08T05:46:04.912Z,96057.28
2023-12-08T05:48:33.092Z,96054.03
2023-12-08T05:51:05.658Z,96055.66
2023-12-08T05:53:33.817Z,96051.59
2023-12-08T05:56:01.791Z,96050.78
2023-12-08T05:58:30.192Z,96040.03
2023-12-08T06:00:58.599Z,96040.91
2023-12-08T06:03:26.703Z,96043.38
2023-12-08T06:05:55.698Z,96036.78
2023-12-08T06:08:25.118Z,96031.78
2023-12-08T06:10:53.126Z,96020.25
2023-12-08T06:13:21.260Z,96027.69
2023-12-08T06:15:49.247Z,96017.75
2023-12-08T06:18:17.410Z,96003.72
2023-12-08T06:20:45.503Z,95999.59
2023-12-08T06:23:13.567Z,95998.75
2023-12-08T06:25:42.957Z,96007.00
2023-12-08T06:28:11.123Z,96000.41
2023-12-08T06:30:39.682Z,96009.44
2023-12-08T06:33:08.066Z,95992.09
2023-12-08T06:35:36.129Z,96021.81
2023-12-08T06:38:05.842Z,96013.53
2023-12-08T06:40:33.898Z,96014.31
2023-12-08T06:43:06.490Z,96018.47
2023-12-08T06:45:34.681Z,96038.31
2023-12-08T06:48:03.035Z,96026.75
2023-12-08T06:50:31.842Z,96031.78
2023-12-08T06:52:59.951Z,96018.53
2023-12-08T06:55:28.026Z,96022.66
2023-12-08T06:57:55.967Z,96028.44
2023-12-08T07:00:25.481Z,96022.59
2023-12-08T07:02:54.906Z,96020.94
2023-12-08T07:05:24.700Z,96011.88
2023-12-08T07:07:53.192Z,96005.22
2023-12-08T07:10:21.381Z,96022.41
2023-12-08T07:12:49.758Z,96003.19
2023-12-08T07:15:17.900Z,96007.25
2023-12-08T07:17:47.565Z,96007.28
2023-12-08T07:20:18.310Z,96001.34
2023-12-08T07:22:46.334Z,96003.09
2023-12-08T07:25:16.147Z,96004.81
2023-12-08T07:27:44.684Z,96001.47
2023-12-08T07:30:15.097Z,96008.91
2023-12-08T07:32:43.818Z,96009.56
2023-12-08T07:35:13.477Z,95994.53
2023-12-08T07:37:42.372Z,96002.41
2023-12-08T07:40:13.395Z,96008.13
2023-12-08T07:42:43.086Z,95997.38
2023-12-08T07:45:12.166Z,95989.22
2023-12-08T07:47:40.659Z,95975.19
2023-12-08T07:50:10.394Z,95987.44
2023-12-08T07:52:40.159Z,95965.69
2023-12-08T07:55:08.946Z,95962.28
2023-12-08T07:57:37.176Z,95973.94
2023-12-08T08:00:07.387Z,95971.94
2023-12-08T08:02:35.570Z,95965.63
2023-12-08T08:05:03.678Z,95973.13
2023-12-08T08:07:32.307Z,95965.13
2023-12-08T08:10:07.992Z,95957.44
2023-12-08T08:12:36.128Z,95977.03
2023-12-08T08:15:04.840Z,95971.19
2023-12-08T08:17:33.159Z,95959.56
2023-12-08T08:20:01.481Z,95976.81
2023-12-08T08:22:32.963Z,95957.66
2023-12-08T08:25:01.878Z,95965.78
2023-12-08T08:27:33.280Z,95937.59
2023-12-08T08:30:01.573Z,95941.25
2023-12-08T08:32:29.981Z,95946.41
2023-12-08T08:34:59.820Z,95936.59
2023-12-08T08:37:30.934Z,95935.41
2023-12-08T08:39:59.152Z,95939.44
2023-12-08T08:42:27.493Z,95937.25
2023-12-08T08:44:56.893Z,95931.72
2023-12-08T08:47:25.086Z,95933.88
2023-12-08T08:49:57.040Z,95924.81
2023-12-08T08:52:25.313Z,95931.06
2023-12-08T08:54:53.631Z,95905.88
2023-12-08T08:57:21.674Z,95925.50
2023-12-08T08:59:49.853Z,95920.19
2023-12-08T09:02:19.157Z,95929.31
2023-12-08T09:04:47.206Z,95928.56
2023-12-08T09:07:15.437Z,95932.59
2023-12-08T09:09:44.887Z,95927.38
2023-12-08T09:12:15.236Z,95933.28
2023-12-08T09:14:43.331Z,95938.97
2023-12-08T09:17:11.346Z,95949.13
2023-12-08T09:19:48.349Z,95926.63
2023-12-08T09:22:16.732Z,95942.81
2023-12-08T09:24:44.772Z,95943.84
2023-12-08T09:27:12.834Z,95925.81
2023-12-08T09:29:40.870Z,95939.03
2023-12-08T09:32:09.233Z,95936.69
2023-12-08T09:34:37.432Z,95948.13
2023-12-08T09:37:26.427Z,95944.91
2023-12-08T09:39:55.254Z,95953.28
2023-12-08T09:42:29.592Z,95966.63
2023-12-08T09:44:57.655Z,95955.94
2023-12-08T09:47:28.887Z,95948.94
2023-12-08T09:49:57.519Z,95943.31
2023-12-08T09:52:26.873Z,95950.38
2023-12-08T09:54:54.988Z,95954.91
2023-12-08T09:57:23.735Z,95947.81
2023-12-08T09:59:53.001Z,95944.22
2023-12-08T10:02:21.029Z,95928.66
2023-12-08T10:04:49.061Z,95938.13
2023-12-08T10:07:17.123Z,95933.41
2023-12-08T10:09:46.522Z,95929.00
2023-12-08T10:12:14.822Z,95923.59
2023-12-08T10:14:52.831Z,95912.59
2023-12-08T10:17:21.512Z,95903.34
2023-12-08T10:19:50.610Z,95901.28
2023-12-08T10:22:19.797Z,95892.66
2023-12-08T10:24:49.186Z,95886.06
2023-12-08T10:27:17.182Z,95894.91
2023-12-08T10:29:45.242Z,95887.97
2023-12-08T10:32:15.997Z,95878.25
2023-12-08T10:34:45.096Z,95888.94
2023-12-08T10:37:13.104Z,95875.44
2023-12-08T10:39:43.036Z,95871.47
2023-12-08T10:42:12.856Z,95876.63
2023-12-08T10:44:41.677Z,95880.84
2023-12-08T10:47:09.761Z,95884.28
2023-12-08T10:49:39.010Z,95883.63
2023-12-08T10:52:08.359Z,95878.94
2023-12-08T10:54:36.477Z,95881.84
2023-12-08T10:57:04.496Z,95874.66
2023-12-08T10:59:34.756Z,95879.03
2023-12-08T11:02:05.329Z,95881.94
2023-12-08T11:04:36.189Z,95887.22
2023-12-08T11:07:12.924Z,95875.31
2023-12-08T11:09:41.981Z,95878.25
2023-12-08T11:12:10.863Z,95882.53
2023-12-08T11:14:43.680Z,95884.22
2023-12-08T11:17:18.948Z,95887.81
2023-12-08T11:19:47.419Z,95900.25
2023-12-08T11:22:15.567Z,95890.91
2023-12-08T11:24:43.899Z,95907.19
2023-12-08T11:27:17.145Z,95900.66
2023-12-08T11:29:52.402Z,95913.47
2023-12-08T11:32:22.877Z,95912.91
2023-12-08T11:34:55.500Z,95904.91
2023-12-08T11:37:24.586Z,95896.97
2023-12-08T11:40:01.292Z,95901.88
2023-12-08T11:42:29.997Z,95903.53
2023-12-08T11:45:00.385Z,95902.09
2023-12-08T11:47:28.904Z,95917.97
2023-12-08T11:49:57.365Z,95932.22
2023-12-08T11:52:28.257Z,95929.16
2023-12-08T11:55:10.423Z,95927.50
2023-12-08T11:57:43.703Z,95930.41
2023-12-08T12:00:14.570Z,95915.06
2023-12-08T12:02:43.888Z,95923.81
2023-12-08T12:05:12.524Z,95921.50
2023-12-08T12:07:40.871Z,95918.53
2023-12-08T12:10:13.142Z,95912.84
2023-12-08T12:12:43.890Z,95895.50
2023-12-08T12:15:13.541Z,95898.00
2023-12-08T12:17:43.041Z,95903.22
2023-12-08T12:20:12.503Z,95908.72
2023-12-08T12:22:41.124Z,95904.19
2023-12-08T12:25:09.496Z,95907.94
2023-12-08T12:27:40.475Z,95903.28
2023-12-08T12:30:09.852Z,95910.31
2023-12-08T12:32:39.629Z,95916.50
2023-12-08T12:35:09.973Z,95920.59
2023-12-08T12:37:38.039Z,95905.97
2023-12-08T12:40:09.439Z,95913.09
2023-12-08T12:42:42.953Z,95930.19
2023-12-08T12:45:12.257Z,95932.34
2023-12-08T12:47:42.438Z,95929.47
2023-12-08T12:50:11.701Z,95916.78
2023-12-08T12:52:41.901Z,95920.72
2023-12-08T12:55:25.945Z,95918.91
2023-12-08T12:57:54.117Z,95919.13
2023-12-08T13:00:34.156Z,95912.81
2023-12-08T13:03:11.817Z,95884.59
2023-12-08T13:05:49.108Z,95914.38
2023-12-08T13:08:18.278Z,95927.41
2023-12-08T13:10:47.404Z,95927.72
2023-12-08T13:13:15.641Z,95919.00
2023-12-08T13:15:45.961Z,95913.19
2023-12-08T13:18:16.620Z,95904.81
2023-12-08T13:20:45.190Z,95919.41
2023-12-08T13:23:13.727Z,95911.94
2023-12-08T13:25:41.932Z,95895.22
2023-12-08T13:28:10.695Z,95903.53
2023-12-08T13:30:38.744Z,95902.22
2023-12-08T13:33:07.832Z,95912.59
2023-12-08T13:35:37.691Z,95924.13
2023-12-08T13:38:05.981Z,95910.53
2023-12-08T13:40:34.359Z,95908.94
2023-12-08T13:43:03.030Z,95926.69
2023-12-08T13:45:31.998Z,95922.50
2023-12-08T13:48:00.750Z,95922.25
2023-12-08T13:50:28.930Z,95933.31
2023-12-08T13:52:58.869Z,95938.34
2023-12-08T13:55:30.177Z,95940.75
2023-12-08T13:58:01.465Z,95926.97
2023-12-08T14:00:29.897Z,95931.38
2023-12-08T14:02:58.387Z,95954.72
2023-12-08T14:05:26.928Z,95933.41
2023-12-08T14:07:55.392Z,95948.94
2023-12-08T14:10:25.056Z,95956.97
2023-12-08T14:12:53.250Z,95955.31
2023-12-08T14:15:21.569Z,95921.09
2023-12-08T14:17:50.033Z,95955.47
2023-12-08T14:20:18.330Z,95965.34
2023-12-08T14:22:47.619Z,95957.16
2023-12-08T14:25:16.043Z,95951.56
2023-12-08T14:27:45.746Z,95971.94
2023-12-08T14:30:14.614Z,95966.84
2023-12-08T14:32:43.007Z,95966.13
2023-12-08T14:35:19.172Z,95964.09
2023-12-08T14:37:54.725Z,95950.25
2023-12-08T14:40:23.426Z,95954.41
2023-12-08T14:42:54.899Z,95950.28
2023-12-08T14:45:23.309Z,95966.88
2023-12-08T14:47:51.681Z,95963.63
2023-12-08T14:50:20.557Z,95972.09
2023-12-08T14:52:48.843Z,95965.63
2023-12-08T14:55:18.725Z,95971.38
2023-12-08T14:57:47.113Z,95969.38
2023-12-08T15:00:17.673Z,95976.13
2023-12-08T15:02:45.884Z,95978.00
2023-12-08T15:05:14.222Z,95981.91
2023-12-08T15:07:43.072Z,95975.59
2023-12-08T15:10:11.487Z,95953.56
2023-12-08T15:12:39.614Z,95978.31
2023-12-08T15:15:09.567Z,95968.16
2023-12-08T15:17:39.749Z,95985.25
2023-12-08T15:20:10.245Z,95978.25
2023-12-08T15:22:40.912Z,95988.78
2023-12-08T15:25:09.892Z,95995.31
2023-12-08T15:27:38.305Z,95980.59
2023-12-08T15:30:08.771Z,95979.31
2023-12-08T15:32:38.316Z,95998.47
2023-12-08T15:35:07.012Z,95993.75
2023-12-08T15:37:35.078Z,96005.84
2023-12-08T15:40:03.220Z,96012.22
2023-12-08T15:42:31.260Z,96017.50
2023-12-08T15:44:59.813Z,96028.69
2023-12-08T15:47:28.172Z,96028.53
2023-12-08T15:49:58.393Z,96022.00
2023-12-08T15:52:26.607Z,96014.13
2023-12-08T15:54:55.326Z,96024.59
2023-12-08T15:57:23.593Z,96029.03
2023-12-08T15:59:51.670Z,96021.28
2023-12-08T16:02:20.403Z,96026.41
2023-12-08T16:04:48.807Z,96039.84
2023-12-08T16:07:18.252Z,96036.94
2023-12-08T16:09:46.466Z,96031.63
2023-12-08T16:12:14.487Z,96043.03
2023-12-08T16:14:44.330Z,96024.25
2023-12-08T16:17:14.481Z,96032.38
2023-12-08T16:19:44.266Z,96028.44
2023-12-08T16:22:12.598Z,96047.22
2023-12-08T16:24:43.956Z,96053.19
2023-12-08T16:27:12.127Z,96050.84
2023-12-08T16:29:40.307Z,96048.50
2023-12-08T16:32:08.276Z,96055.06
2023-12-08T16:34:36.278Z,96050.47
2023-12-08T16:37:05.347Z,96050.41
2023-12-08T16:39:33.788Z,96051.13
2023-12-08T16:42:03.322Z,96053.97
2023-12-08T16:44:32.127Z,96059.31
2023-12-08T16:47:00.137Z,96052.78
2023-12-08T16:49:28.395Z,96059.59
2023-12-08T16:51:56.480Z,96056.63
2023-12-08T16:54:25.015Z,96050.19
2023-12-08T16:56:54.597Z,96061.78
2023-12-08T16:59:24.028Z,96053.72
2023-12-08T17:01:51.944Z,96046.28
2023-12-08T17:04:20.043Z,96048.03
2023-12-08T17:06:48.090Z,96048.19
2023-12-08T17:09:17.092Z,96057.44
2023-12-08T17:11:48.175Z,96064.34
2023-12-08T17:14:16.480Z,96062.22
2023-12-08T17:16:46.373Z,96055.97
2023-12-08T17:19:14.429Z,96067.50
2023-12-08T17:21:42.489Z,96073.72
2023-12-08T17:24:10.756Z,96078.78
2023-12-08T17:26:40.892Z,96058.50
2023-12-08T17:29:10.167Z,96089.75
2023-12-08T17:31:38.722Z,96077.50
2023-12-08T17:34:16.318Z,96080.25
2023-12-08T17:36:49.899Z,96073.59
2023-12-08T17:39:18.928Z,96070.34
2023-12-08T17:41:48.178Z,96074.56
2023-12-08T17:44:16.447Z,96078.16
2023-12-08T17:46:44.507Z,96084.03
2023-12-08T17:49:14.098Z,96084.03
2023-12-08T17:51:42.280Z,96086.56
2023-12-08T17:54:10.308Z,96088.44
2023-12-08T17:56:38.333Z,96097.75
2023-12-08T17:59:07.027Z,96103.50
2023-12-08T18:01:35.023Z,96086.81
2023-12-08T18:04:03.789Z,96098.47
2023-12-08T18:06:33.789Z,96110.31
2023-12-08T18:09:04.958Z,96111.19
2023-12-08T18:11:33.775Z,96111.91
2023-12-08T18:14:01.752Z,96112.78
2023-12-08T18:16:31.216Z,96110.38
2023-12-08T18:19:00.207Z,96107.06
2023-12-08T18:21:29.973Z,96091.34
2023-12-08T18:24:00.157Z,96119.16
2023-12-08T18:26:29.121Z,96108.97
2023-12-08T18:29:08.170Z,96109.13
2023-12-08T18:31:39.334Z,96114.03
2023-12-08T18:34:08.159Z,96119.81
2023-12-08T18:36:36.967Z,96126.66
2023-12-08T18:39:07.218Z,96119.41
2023-12-08T18:41:36.487Z,96125.25
2023-12-08T18:44:04.758Z,96120.47
2023-12-08T18:46:34.210Z,96102.19
2023-12-08T18:49:04.715Z,96130.09
2023-12-08T18:51:34.848Z,96140.69
2023-12-08T18:54:03.276Z,96139.75
2023-12-08T18:56:33.234Z,96117.81
2023-12-08T18:59:01.628Z,96139.66
2023-12-08T19:01:29.899Z,96154.75
2023-12-08T19:03:58.526Z,96155.69
2023-12-08T19:06:26.699Z,96148.25
2023-12-08T19:08:55.059Z,96143.50
2023-12-08T19:11:23.100Z,96161.72
2023-12-08T19:13:53.009Z,96169.25
2023-12-08T19:16:21.410Z,96155.22
2023-12-08T19:18:50.602Z,96156.84
2023-12-08T19:21:18.733Z,96154.31
2023-12-08T19:23:47.554Z,96166.69
2023-12-08T19:26:16.007Z,96163.34
2023-12-08T19:28:45.864Z,96173.22
2023-12-08T19:31:16.071Z,96175.72
2023-12-08T19:33:44.553Z,96173.16
2023-12-08T19:36:16.140Z,96183.81
2023-12-08T19:38:45.505Z,96157.19
2023-12-08T19:41:13.796Z,96196.09
2023-12-08T19:43:42.162Z,96184.00
2023-12-08T19:46:10.699Z,96171.34
2023-12-08T19:48:40.594Z,96173.88
2023-12-08T19:51:09.148Z,96180.47
2023-12-08T19:53:37.985Z,96180.25
2023-12-08T19:56:07.128Z,96187.31
2023-12-08T19:58:35.846Z,96190.88
2023-12-08T20:01:06.409Z,96159.41
2023-12-08T20:03:34.745Z,96188.38
2023-12-08T20:06:05.109Z,96180.66
2023-12-08T20:08:33.684Z,96184.63
2023-12-08T20:11:02.467Z,96155.56
2023-12-08T20:13:30.773Z,96179.25
2023-12-08T20:15:59.115Z,96156.97
2023-12-08T20:18:28.735Z,96188.38
2023-12-08T20:20:57.236Z,96188.81
2023-12-08T20:23:27.669Z,96145.19
2023-12-08T20:25:55.888Z,96172.50
2023-12-08T20:28:24.231Z,96192.41
2023-12-08T20:30:52.540Z,96190.06
2023-12-08T20:33:21.137Z,96188.03
2023-12-08T20:35:49.565Z,96167.88
2023-12-08T20:38:18.158Z,96179.63
2023-12-08T20:40:48.647Z,96171.34
2023-12-08T20:43:18.571Z,96203.44
2023-12-08T20:45:48.681Z,96197.50
2023-12-08T20:48:17.181Z,96193.47
2023-12-08T20:50:45.621Z,96200.00
2023-12-08T20:53:14.958Z,96187.28
2023-12-08T20:55:43.278Z,96200.28
2023-12-08T20:58:12.978Z,96183.81
2023-12-08T21:00:41.935Z,96197.41
2023-12-08T21:03:10.623Z,96206.41
2023-12-08T21:05:39.064Z,96201.69
2023-12-08T21:08:07.440Z,96187.81
2023-12-08T21:10:36.234Z,96204.19
2023-12-08T21:13:04.522Z,96185.06
2023-12-08T21:15:34.429Z,96192.25
2023-12-08T21:18:02.817Z,96176.88
2023-12-08T21:20:31.058Z,96209.53
2023-12-08T21:22:59.744Z,96201.34
2023-12-08T21:25:27.728Z,96220.38
2023-12-08T21:27:58.618Z,96205.81
2023-12-08T21:30:27.021Z,96204.91
2023-12-08T21:32:56.966Z,96197.84
2023-12-08T21:35:27.148Z,96219.50
2023-12-08T21:37:55.431Z,96215.72
2023-12-08T21:40:23.487Z,96231.44
2023-12-08T21:42:54.129Z,96223.06
2023-12-08T21:45:22.772Z,96237.13
2023-12-08T21:47:51.431Z,96241.94
2023-12-08T21:50:21.440Z,96202.84
2023-12-08T21:52:53.205Z,96225.56
2023-12-08T21:55:22.137Z,96235.88
2023-12-08T21:57:50.829Z,96225.81
2023-12-08T22:00:19.607Z,96220.72
2023-12-08T22:02:48.098Z,96215.09
2023-12-08T22:05:16.903Z,96218.38
2023-12-08T22:07:46.935Z,96217.06
2023-12-08T22:10:15.193Z,96204.97
2023-12-08T22:12:43.639Z,96213.56
2023-12-08T22:15:12.445Z,96210.16
2023-12-08T22:17:40.805Z,96203.72
2023-12-08T22:20:10.659Z,96213.38
2023-12-08T22:22:41.996Z,96237.06
2023-12-08T22:25:12.642Z,96231.06
2023-12-08T22:27:41.005Z,96207.38
2023-12-08T22:30:10.323Z,96209.97
2023-12-08T22:32:38.926Z,96208.09
2023-12-08T22:35:08.603Z,96226.94
2023-12-08T22:37:39.255Z,96233.75
2023-12-08T22:40:09.124Z,96240.06
2023-12-08T22:42:39.030Z,96230.88
2023-12-08T22:45:08.592Z,96233.06
2023-12-08T22:47:36.975Z,96230.56
2023-12-08T22:50:05.881Z,96220.59
2023-12-08T22:52:34.683Z,96211.53
2023-12-08T22:55:03.103Z,96221.25
2023-12-08T22:57:31.650Z,96224.22
2023-12-08T23:00:01.800Z,96200.91
2023-12-08T23:02:30.368Z,96196.78
2023-12-08T23:04:58.965Z,96201.69
2023-12-08T23:07:27.508Z,96224.78
2023-12-08T23:09:56.473Z,96229.84
2023-12-08T23:12:26.940Z,96204.13
2023-12-08T23:14:55.512Z,96199.84
2023-12-08T23:17:25.394Z,96212.16
2023-12-08T23:19:53.755Z,96222.44
2023-12-08T23:22:21.982Z,96214.56
2023-12-08T23:24:50.556Z,96202.56
2023-12-08T23:27:19.002Z,96221.47
2023-12-08T23:29:47.548Z,96224.19
2023-12-08T23:32:16.234Z,96212.41
2023-12-08T23:34:45.761Z,96221.69
2023-12-08T23:37:14.332Z,96214.63
2023-12-08T23:39:42.678Z,96233.94
2023-12-08T23:42:10.885Z,96227.72
2023-12-08T23:44:39.243Z,96232.81
2023-12-08T23:47:07.614Z,96246.19
2023-12-08T23:49:36.308Z,96229.88
2023-12-08T23:52:06.739Z,96232.50
2023-12-08T23:54:35.022Z,96237.84
2023-12-08T23:57:03.371Z,96227.81
2023-12-08T23:59:31.745Z,96220.88
